Time;durP1;ratioP1;P1;durP2;ratioP2;P2;SDS_P1;SDS_P2;PMS_P1;PMS_P2;Temp;Humidity;BMP_temperature;BMP_pressure;BME280_temperature;BME280_humidity;BME280_pressure;Samples;Min_cycle;Max_cycle;Signal;HPM_P1;HPM_P2
2023/08/25 00:00:24;;;;;;;6.90;4.95;;;24.60;63.40;26.20;100788.00;;;;5046785;28;20199;-81
2023/08/25 00:02:51;;;;;;;5.68;4.40;;;24.50;63.30;26.20;100788.00;;;;5047089;28;20200;-80
2023/08/25 00:05:18;;;;;;;5.68;4.95;;;24.60;63.40;26.20;100796.00;;;;5048690;28;20739;-80
2023/08/25 00:07:46;;;;;;;5.70;5.15;;;24.50;63.40;26.10;100798.00;;;;5047976;28;20220;-80
2023/08/25 00:10:14;;;;;;;5.32;4.82;;;24.50;63.50;26.10;100793.00;;;;5048310;28;20207;-79
2023/08/25 00:12:41;;;;;;;6.15;4.75;;;24.50;63.50;26.10;100797.00;;;;5045794;28;20249;-79
2023/08/25 00:15:10;;;;;;;6.93;5.15;;;24.50;63.50;26.10;100794.00;;;;5047980;28;20219;-80
2023/08/25 00:17:37;;;;;;;5.70;5.13;;;24.50;63.70;26.10;100802.00;;;;5049157;28;20200;-80
2023/08/25 00:20:09;;;;;;;7.50;5.38;;;24.50;63.60;26.00;100801.00;;;;5046922;28;20203;-80
2023/08/25 00:22:37;;;;;;;5.50;5.00;;;24.40;63.70;26.10;100805.00;;;;5047620;28;20209;-81
2023/08/25 00:25:07;;;;;;;5.70;5.03;;;24.40;63.70;26.00;100801.00;;;;5036078;28;20195;-80
2023/08/25 00:27:34;;;;;;;5.30;4.47;;;24.40;63.90;26.00;100814.00;;;;5048473;28;20223;-81
2023/08/25 00:30:01;;;;;;;5.30;4.82;;;24.40;63.90;26.00;100811.00;;;;5047141;28;20191;-80
2023/08/25 00:32:28;;;;;;;6.55;5.18;;;24.40;64.00;26.00;100817.00;;;;5048790;28;20191;-80
2023/08/25 00:34:55;;;;;;;5.13;4.65;;;24.40;64.10;26.00;100823.00;;;;5047630;28;20187;-80
2023/08/25 00:37:22;;;;;;;6.72;4.55;;;24.40;64.10;26.00;100815.00;;;;5037396;28;20617;-80
2023/08/25 00:39:49;;;;;;;5.90;5.35;;;24.40;64.20;26.00;100807.00;;;;5048733;28;20199;-81
2023/08/25 00:42:20;;;;;;;7.72;4.70;;;24.40;64.40;26.00;100811.00;;;;5048027;28;20302;-80
2023/08/25 00:44:47;;;;;;;6.25;4.95;;;24.40;64.40;26.00;100811.00;;;;5047920;28;20200;-80
2023/08/25 00:47:14;;;;;;;7.43;6.63;;;24.40;64.40;26.00;100811.00;;;;5046448;28;20619;-80
2023/08/25 00:49:42;;;;;;;6.55;5.90;;;24.40;64.50;26.00;100804.00;;;;5047541;28;20202;-80
2023/08/25 00:52:11;;;;;;;9.85;7.13;;;24.40;64.60;26.00;100807.00;;;;5045614;28;20749;-80
2023/08/25 00:54:40;;;;;;;7.55;6.70;;;24.40;64.60;26.00;100807.00;;;;5048138;28;20253;-80
2023/08/25 00:57:07;;;;;;;6.93;6.25;;;24.40;64.60;26.00;100797.00;;;;5044276;28;20192;-80
2023/08/25 00:59:37;;;;;;;7.68;6.75;;;24.40;64.70;26.00;100792.00;;;;5048173;28;20196;-80
2023/08/25 01:02:05;;;;;;;7.97;7.05;;;24.40;64.70;26.00;100791.00;;;;5048068;28;20210;-80
2023/08/25 01:04:33;;;;;;;7.70;6.90;;;24.40;64.60;26.00;100794.00;;;;5047149;28;20982;-80
2023/08/25 01:07:00;;;;;;;8.68;6.45;;;24.40;64.60;26.00;100786.00;;;;5045507;28;20199;-80
2023/08/25 01:09:28;;;;;;;6.68;6.07;;;24.40;64.60;26.00;100792.00;;;;5046502;28;20223;-81
2023/08/25 01:12:04;;;;;;;6.90;6.20;;;24.40;64.60;25.90;100799.00;;;;5032462;28;20195;-80
2023/08/25 01:14:57;;;;;;;7.03;6.30;;;24.40;64.70;25.80;100791.00;;;;5046554;28;20631;-80
2023/08/25 01:17:36;;;;;;;7.85;6.50;;;24.30;65.30;25.90;100790.00;;;;5046687;28;20210;-80
2023/08/25 01:20:06;;;;;;;7.22;6.50;;;24.40;64.50;25.90;100787.00;;;;5046192;28;20655;-80
2023/08/25 01:22:52;;;;;;;7.05;6.38;;;24.30;64.40;25.80;100795.00;;;;5046998;28;20237;-80
2023/08/25 01:25:25;;;;;;;8.13;7.07;;;24.30;64.50;25.90;100795.00;;;;5044415;28;20318;-80
2023/08/25 01:27:55;;;;;;;9.07;7.30;;;24.30;64.50;25.90;100797.00;;;;5030341;28;20550;-80
2023/08/25 01:30:24;;;;;;;8.45;7.63;;;24.30;64.30;25.90;100797.00;;;;5030919;28;20207;-80
2023/08/25 01:32:52;;;;;;;8.98;7.15;;;24.30;64.40;25.90;100793.00;;;;5046598;28;20199;-80
2023/08/25 01:35:27;;;;;;;8.75;7.88;;;24.30;64.40;25.80;100794.00;;;;5045371;28;20679;-80
2023/08/25 01:38:03;;;;;;;7.95;7.15;;;24.20;64.40;25.80;100797.00;;;;5046895;28;20203;-80
2023/08/25 01:40:45;;;;;;;12.35;7.88;;;24.20;64.50;25.70;100800.00;;;;5047295;28;20620;-80
2023/08/25 01:43:17;;;;;;;10.35;8.75;;;24.20;64.60;25.80;100793.00;;;;5043568;28;20200;-81
2023/08/25 01:45:46;;;;;;;8.45;7.38;;;24.20;64.50;25.80;100795.00;;;;5036744;28;20689;-80
2023/08/25 01:48:15;;;;;;;9.23;8.30;;;24.20;64.60;25.80;100787.00;;;;5046879;28;20220;-80
2023/08/25 01:50:44;;;;;;;10.05;8.85;;;24.10;64.60;25.80;100787.00;;;;5042890;28;20196;-80
2023/08/25 01:53:12;;;;;;;8.98;8.07;;;24.10;64.70;25.80;100791.00;;;;5045637;28;20195;-80
2023/08/25 01:55:40;;;;;;;9.40;8.38;;;24.10;64.80;25.80;100785.00;;;;5047038;28;20594;-80
2023/08/25 01:58:07;;;;;;;9.38;8.43;;;24.10;64.80;25.80;100784.00;;;;5045888;28;20223;-80
2023/08/25 02:00:34;;;;;;;9.90;8.90;;;24.10;64.80;25.80;100781.00;;;;5040795;28;20582;-80
2023/08/25 02:03:01;;;;;;;10.43;9.38;;;24.10;64.90;25.80;100776.00;;;;5048883;28;20199;-80
2023/08/25 02:05:28;;;;;;;10.05;9.02;;;24.20;65.10;25.80;100770.00;;;;5051153;28;20279;-80
2023/08/25 02:07:55;;;;;;;9.88;8.60;;;24.10;65.10;25.80;100780.00;;;;5051277;28;20218;-80
2023/08/25 02:10:22;;;;;;;11.23;10.05;;;24.10;65.10;25.80;100778.00;;;;5049466;28;20196;-80
2023/08/25 02:12:50;;;;;;;12.05;9.55;;;24.10;65.10;25.80;100781.00;;;;5049358;28;20192;-80
2023/08/25 02:15:17;;;;;;;10.02;9.02;;;24.20;65.10;25.80;100778.00;;;;5049186;28;20187;-80
2023/08/25 02:17:44;;;;;;;10.75;9.50;;;24.20;65.10;25.80;100769.00;;;;5049521;28;20552;-80
2023/08/25 02:20:12;;;;;;;10.60;9.50;;;24.20;65.10;25.80;100771.00;;;;5049821;28;20199;-80
2023/08/25 02:22:39;;;;;;;13.00;9.52;;;24.10;65.00;25.80;100767.00;;;;5048991;28;20199;-80
2023/08/25 02:25:07;;;;;;;11.07;9.13;;;24.10;65.00;25.80;100766.00;;;;5048943;28;20196;-80
2023/08/25 02:27:34;;;;;;;10.73;9.63;;;24.10;65.00;25.80;100762.00;;;;5049853;28;20203;-80
2023/08/25 02:30:04;;;;;;;12.85;8.90;;;24.10;65.10;25.80;100756.00;;;;5049831;28;20246;-80
2023/08/25 02:32:31;;;;;;;10.00;8.98;;;24.10;65.10;25.80;100758.00;;;;5049907;28;20249;-80
2023/08/25 02:34:58;;;;;;;10.90;9.80;;;24.10;65.10;25.80;100757.00;;;;5049878;28;20205;-80
2023/08/25 02:37:25;;;;;;;11.02;9.48;;;24.10;65.10;25.80;100750.00;;;;5050959;28;20612;-80
2023/08/25 02:39:52;;;;;;;9.15;8.07;;;24.10;65.10;25.80;100755.00;;;;5049330;28;21024;-80
2023/08/25 02:42:19;;;;;;;10.95;9.13;;;24.10;65.20;25.80;100744.00;;;;5050102;28;20226;-79
2023/08/25 02:44:46;;;;;;;10.43;9.10;;;24.20;65.30;25.80;100741.00;;;;5049239;28;20203;-80
2023/08/25 02:47:14;;;;;;;10.57;9.32;;;24.10;65.20;25.80;100733.00;;;;5048340;28;20199;-80
2023/08/25 02:49:41;;;;;;;11.48;9.25;;;24.20;65.30;25.80;100734.00;;;;5050177;28;20216;-80
2023/08/25 02:52:08;;;;;;;16.60;9.88;;;24.20;65.30;25.80;100733.00;;;;5047695;28;20596;-80
2023/08/25 02:54:36;;;;;;;10.70;9.07;;;24.10;65.30;25.80;100723.00;;;;5049842;28;20195;-80
2023/08/25 02:57:03;;;;;;;11.73;10.38;;;24.10;65.30;25.80;100715.00;;;;5048281;28;20217;-80
2023/08/25 02:59:30;;;;;;;12.20;10.60;;;24.10;65.30;25.80;100711.00;;;;5050685;28;20192;-79
2023/08/25 03:01:57;;;;;;;11.18;9.48;;;24.10;65.30;25.80;100714.00;;;;5049114;28;20195;-80
2023/08/25 03:04:25;;;;;;;15.05;10.15;;;24.10;65.40;25.80;100713.00;;;;5050353;28;20679;-80
2023/08/25 03:06:54;;;;;;;10.90;9.52;;;24.10;65.40;25.80;100720.00;;;;5048895;28;20210;-80
2023/08/25 03:09:21;;;;;;;10.60;8.98;;;24.10;65.40;25.80;100716.00;;;;5047031;28;20227;-80
2023/08/25 03:11:48;;;;;;;13.05;10.02;;;24.10;65.50;25.80;100708.00;;;;5048545;28;20203;-80
2023/08/25 03:14:15;;;;;;;10.32;9.23;;;24.20;65.60;25.80;100703.00;;;;5049491;28;20231;-80
2023/08/25 03:16:43;;;;;;;11.18;10.07;;;24.20;65.60;25.80;100704.00;;;;5049002;28;20200;-80
2023/08/25 03:19:10;;;;;;;12.43;10.82;;;24.20;65.60;25.80;100695.00;;;;5047766;28;20215;-80
2023/08/25 03:21:38;;;;;;;10.77;9.52;;;24.20;65.70;25.80;100699.00;;;;5049018;28;20574;-80
2023/08/25 03:24:07;;;;;;;12.38;10.35;;;24.20;65.70;25.80;100700.00;;;;5039491;28;20199;-80
2023/08/25 03:26:34;;;;;;;11.27;10.05;;;24.20;65.70;25.80;100701.00;;;;5048660;28;20659;-79
2023/08/25 03:29:01;;;;;;;12.75;11.13;;;24.20;65.70;25.80;100698.00;;;;5048572;28;20215;-79
2023/08/25 03:31:28;;;;;;;11.27;9.95;;;24.20;65.70;25.80;100701.00;;;;5049098;28;20286;-79
2023/08/25 03:33:55;;;;;;;12.40;10.13;;;24.20;65.80;25.80;100688.00;;;;5049158;28;20200;-80
2023/08/25 03:36:22;;;;;;;12.63;10.55;;;24.20;65.80;25.80;100693.00;;;;5047861;28;20206;-80
2023/08/25 03:38:51;;;;;;;13.90;11.40;;;24.20;65.80;25.80;100692.00;;;;5048619;28;20234;-80
2023/08/25 03:41:18;;;;;;;13.23;11.20;;;24.20;65.90;25.90;100687.00;;;;5048786;28;20199;-80
2023/08/25 03:43:45;;;;;;;15.40;12.90;;;24.20;65.90;25.90;100678.00;;;;5046735;28;20667;-80
2023/08/25 03:46:12;;;;;;;15.82;11.85;;;24.20;66.00;25.90;100675.00;;;;5045299;28;20567;-80
2023/08/25 03:48:39;;;;;;;12.90;9.93;;;24.20;66.00;25.90;100686.00;;;;5048270;28;20222;-80
2023/08/25 03:51:06;;;;;;;12.48;11.18;;;24.20;66.00;25.90;100680.00;;;;5042465;28;20196;-80
2023/08/25 03:53:33;;;;;;;12.05;10.82;;;24.30;66.10;25.90;100687.00;;;;5042799;28;20195;-80
2023/08/25 03:56:01;;;;;;;14.63;11.82;;;24.30;66.10;25.90;100676.00;;;;5047662;28;20599;-80
2023/08/25 03:58:28;;;;;;;13.45;11.27;;;24.30;66.10;25.90;100674.00;;;;5049137;28;20199;-80
2023/08/25 04:00:56;;;;;;;11.98;10.63;;;24.30;66.00;25.90;100674.00;;;;5046216;28;20204;-80
2023/08/25 04:03:23;;;;;;;14.20;11.98;;;24.30;66.00;25.90;100667.00;;;;5044140;28;20290;-80
2023/08/25 04:05:51;;;;;;;13.73;11.48;;;24.30;66.10;25.90;100673.00;;;;5047926;28;20682;-80
2023/08/25 04:08:18;;;;;;;14.25;12.70;;;24.40;66.20;25.90;100668.00;;;;5047803;28;20198;-80
2023/08/25 04:10:48;;;;;;;16.42;12.65;;;24.30;66.10;26.00;100670.00;;;;5046217;28;20568;-80
2023/08/25 04:13:16;;;;;;;14.00;12.45;;;24.40;66.20;26.00;100655.00;;;;5046253;28;20266;-80
2023/08/25 04:15:44;;;;;;;15.38;12.70;;;24.40;66.20;26.00;100653.00;;;;5042651;28;20398;-80
2023/08/25 04:18:11;;;;;;;13.85;11.82;;;24.40;66.10;26.00;100650.00;;;;5037326;28;20203;-80
2023/08/25 04:20:38;;;;;;;14.98;11.60;;;24.40;66.20;26.00;100656.00;;;;5047514;28;20210;-80
2023/08/25 04:23:05;;;;;;;13.38;11.88;;;24.40;66.30;26.00;100653.00;;;;5045780;28;20202;-80
2023/08/25 04:25:32;;;;;;;15.43;12.27;;;24.40;66.30;26.00;100655.00;;;;5048606;28;20191;-80
2023/08/25 04:27:59;;;;;;;13.95;11.82;;;24.40;66.40;26.00;100655.00;;;;5046691;28;20192;-80
2023/08/25 04:30:30;;;;;;;15.88;11.60;;;24.40;66.40;26.00;100652.00;;;;5048075;28;20223;-80
2023/08/25 04:32:57;;;;;;;14.35;11.45;;;24.40;66.40;26.00;100644.00;;;;5047077;28;20196;-80
2023/08/25 04:35:24;;;;;;;12.45;10.30;;;24.40;66.40;26.00;100648.00;;;;5047564;28;20206;-80
2023/08/25 04:37:51;;;;;;;12.07;10.43;;;24.40;66.40;26.00;100657.00;;;;5048084;28;20209;-80
2023/08/25 04:40:19;;;;;;;14.25;11.48;;;24.40;66.40;26.00;100640.00;;;;5046568;28;20314;-80
2023/08/25 04:42:46;;;;;;;15.55;11.52;;;24.40;66.40;26.00;100646.00;;;;5038981;28;20187;-81
2023/08/25 04:45:14;;;;;;;13.18;11.02;;;24.40;66.50;26.00;100652.00;;;;5045431;28;20577;-80
2023/08/25 04:47:42;;;;;;;13.82;11.30;;;24.40;66.50;26.00;100647.00;;;;5042405;28;20199;-80
2023/08/25 04:50:10;;;;;;;12.85;10.60;;;24.40;66.50;26.00;100644.00;;;;5042286;28;20228;-80
2023/08/25 04:52:37;;;;;;;12.63;10.00;;;24.40;66.50;26.00;100642.00;;;;5038371;28;20199;-80
2023/08/25 04:55:06;;;;;;;15.75;11.25;;;24.40;66.50;26.00;100644.00;;;;5045162;28;20220;-80
2023/08/25 04:57:34;;;;;;;13.77;11.55;;;24.50;66.60;26.00;100643.00;;;;5041995;28;20706;-80
2023/08/25 05:00:05;;;;;;;13.00;10.82;;;24.50;66.60;26.10;100642.00;;;;5044239;28;20249;-80
2023/08/25 05:02:32;;;;;;;16.02;12.35;;;24.40;66.50;26.10;100638.00;;;;5047713;28;20195;-81
2023/08/25 05:05:01;;;;;;;14.93;12.75;;;24.50;66.60;26.10;100640.00;;;;5045815;28;20206;-80
2023/08/25 05:07:28;;;;;;;15.77;10.98;;;24.50;66.60;26.10;100640.00;;;;5044384;28;20415;-80
2023/08/25 05:09:55;;;;;;;16.23;12.02;;;24.50;66.60;26.10;100641.00;;;;5047245;28;20222;-80
2023/08/25 05:12:22;;;;;;;14.35;12.43;;;24.50;66.60;26.10;100648.00;;;;5038205;28;20274;-80
2023/08/25 05:14:49;;;;;;;12.65;11.23;;;24.50;66.60;26.10;100636.00;;;;5046098;28;20219;-80
2023/08/25 05:17:16;;;;;;;15.80;11.88;;;24.50;66.60;26.10;100636.00;;;;5047587;28;20214;-80
2023/08/25 05:19:44;;;;;;;13.73;12.07;;;24.50;66.70;26.10;100638.00;;;;5047042;28;20213;-80
2023/08/25 05:22:12;;;;;;;13.07;11.35;;;24.50;66.70;26.10;100637.00;;;;5043304;28;20207;-80
2023/08/25 05:24:40;;;;;;;15.02;12.45;;;24.50;66.70;26.10;100640.00;;;;5036630;28;20567;-83
2023/08/25 05:27:07;;;;;;;15.25;12.27;;;24.60;66.80;26.10;100636.00;;;;5039464;28;20203;-81
2023/08/25 05:29:34;;;;;;;13.45;11.07;;;24.50;66.70;26.20;100640.00;;;;5032862;28;20247;-82
2023/08/25 05:32:01;;;;;;;16.83;13.10;;;24.60;66.80;26.20;100645.00;;;;5046027;28;20206;-81
2023/08/25 05:34:31;;;;;;;15.05;11.60;;;24.60;66.80;26.20;100651.00;;;;5048260;28;20203;-82
2023/08/25 05:36:58;;;;;;;15.80;13.02;;;24.60;66.90;26.20;100640.00;;;;5044818;28;20278;-81
2023/08/25 05:39:26;;;;;;;15.27;11.95;;;24.60;66.80;26.20;100643.00;;;;5049335;28;20199;-82
2023/08/25 05:41:53;;;;;;;13.52;10.73;;;24.60;66.90;26.20;100640.00;;;;5048947;28;20206;-82
2023/08/25 05:44:20;;;;;;;13.75;11.55;;;24.60;66.90;26.20;100633.00;;;;5046870;28;20204;-83
2023/08/25 05:46:48;;;;;;;15.02;11.35;;;24.60;66.90;26.20;100620.00;;;;5043374;28;20210;-83
2023/08/25 05:49:15;;;;;;;15.38;12.15;;;24.60;66.90;26.20;100624.00;;;;5048440;28;20228;-81
2023/08/25 05:51:42;;;;;;;15.68;13.15;;;24.60;66.90;26.20;100619.00;;;;5046103;28;20212;-81
2023/08/25 05:54:10;;;;;;;16.33;11.77;;;24.60;66.90;26.30;100622.00;;;;5049758;28;20501;-80
2023/08/25 05:56:38;;;;;;;13.98;11.60;;;24.60;67.00;26.30;100618.00;;;;5048746;28;20226;-82
2023/08/25 05:59:05;;;;;;;15.38;12.60;;;24.60;67.00;26.30;100621.00;;;;5047557;28;20265;-81
2023/08/25 06:01:32;;;;;;;14.25;12.20;;;24.70;67.10;26.30;100625.00;;;;5048632;28;20204;-82
2023/08/25 06:03:59;;;;;;;15.68;11.15;;;24.70;67.00;26.30;100628.00;;;;5047000;28;20200;-82
2023/08/25 06:06:26;;;;;;;13.55;11.95;;;24.70;67.10;26.30;100632.00;;;;5049890;28;20200;-82
2023/08/25 06:08:54;;;;;;;14.73;12.43;;;24.70;67.10;26.40;100630.00;;;;5049819;28;20203;-82
2023/08/25 06:11:22;;;;;;;13.45;11.52;;;24.70;67.00;26.40;100625.00;;;;5048907;28;20634;-82
2023/08/25 06:13:50;;;;;;;18.17;12.25;;;24.70;67.10;26.40;100613.00;;;;5047815;28;20238;-80
2023/08/25 06:16:17;;;;;;;15.27;12.65;;;24.80;67.10;26.40;100618.00;;;;5044450;28;21036;-81
2023/08/25 06:18:44;;;;;;;15.88;11.40;;;24.70;67.10;26.40;100625.00;;;;5049833;28;20321;-82
2023/08/25 06:21:11;;;;;;;13.50;12.07;;;24.80;67.20;26.40;100629.00;;;;5040648;28;20199;-81
2023/08/25 06:23:38;;;;;;;14.43;11.98;;;24.80;67.20;26.40;100627.00;;;;5040796;28;20193;-81
2023/08/25 06:26:07;;;;;;;14.38;11.75;;;24.80;67.20;26.50;100622.00;;;;5039114;28;21040;-81
2023/08/25 06:28:34;;;;;;;11.77;10.40;;;24.80;67.20;26.50;100626.00;;;;5035846;28;20196;-82
2023/08/25 06:31:02;;;;;;;14.48;11.98;;;24.90;67.20;26.50;100627.00;;;;5046710;28;20219;-81
2023/08/25 06:33:31;;;;;;;14.30;12.02;;;24.90;67.20;26.50;100626.00;;;;5048286;28;20222;-82
2023/08/25 06:35:59;;;;;;;14.48;11.90;;;24.90;67.20;26.50;100637.00;;;;5050770;28;20203;-82
2023/08/25 06:38:27;;;;;;;13.88;11.98;;;24.90;67.30;26.50;100650.00;;;;5050087;28;20394;-82
2023/08/25 06:40:54;;;;;;;16.58;12.38;;;24.90;67.30;26.60;100646.00;;;;5050541;28;20195;-82
2023/08/25 06:43:21;;;;;;;14.25;11.80;;;24.90;67.30;26.60;100645.00;;;;5050268;28;20196;-81
2023/08/25 06:45:48;;;;;;;15.52;12.05;;;25.00;67.30;26.60;100643.00;;;;5049017;28;20203;-81
2023/08/25 06:48:17;;;;;;;17.15;12.43;;;25.00;67.30;26.60;100645.00;;;;5050247;28;20222;-83
2023/08/25 06:50:44;;;;;;;14.65;11.80;;;25.00;67.30;26.60;100641.00;;;;5049551;28;20223;-83
2023/08/25 06:53:11;;;;;;;14.82;12.20;;;25.00;67.30;26.60;100638.00;;;;5049318;28;20204;-81
2023/08/25 06:55:38;;;;;;;14.40;12.38;;;25.00;67.30;26.60;100629.00;;;;5050618;28;20230;-82
2023/08/25 06:58:06;;;;;;;13.60;11.60;;;25.00;67.30;26.60;100626.00;;;;5050427;28;20569;-83
2023/08/25 07:00:34;;;;;;;14.60;11.27;;;25.00;67.30;26.70;100620.00;;;;5048972;28;20373;-83
2023/08/25 07:03:03;;;;;;;16.63;12.68;;;25.00;67.30;26.70;100606.00;;;;5049490;28;20245;-83
2023/08/25 07:05:31;;;;;;;19.60;11.48;;;25.00;67.40;26.70;100609.00;;;;5049981;28;20689;-83
2023/08/25 07:07:58;;;;;;;19.13;12.95;;;25.10;67.50;26.70;100610.00;;;;5048820;28;20200;-82
2023/08/25 07:10:25;;;;;;;18.70;13.98;;;25.10;67.40;26.80;100611.00;;;;5050173;28;20223;-83
2023/08/25 07:12:52;;;;;;;16.30;13.27;;;25.20;67.60;26.80;100603.00;;;;5049301;28;20203;-83
2023/08/25 07:15:19;;;;;;;17.20;14.02;;;25.20;67.60;26.90;100596.00;;;;5049741;28;20214;-83
2023/08/25 07:17:47;;;;;;;15.70;13.40;;;25.20;67.60;26.90;100600.00;;;;5049715;28;20592;-82
2023/08/25 07:20:14;;;;;;;18.88;13.48;;;25.20;67.60;27.00;100590.00;;;;5049824;28;20565;-83
2023/08/25 07:22:43;;;;;;;19.40;14.98;;;25.30;67.70;27.00;100598.00;;;;5049213;28;20195;-83
2023/08/25 07:25:10;;;;;;;16.40;13.40;;;25.30;67.80;27.10;100599.00;;;;5047401;28;20590;-83
2023/08/25 07:27:37;;;;;;;17.90;13.13;;;25.30;67.70;27.10;100593.00;;;;5050121;28;20667;-83
2023/08/25 07:30:05;;;;;;;18.50;13.63;;;25.40;67.70;27.10;100589.00;;;;5049572;28;20597;-82
2023/08/25 07:32:32;;;;;;;22.10;15.52;;;25.50;68.40;27.20;100589.00;;;;5049168;28;20200;-84
2023/08/25 07:34:59;;;;;;;18.48;14.48;;;25.50;67.80;27.20;100595.00;;;;5049263;28;20199;-83
2023/08/25 07:37:26;;;;;;;21.23;15.25;;;25.60;67.60;27.30;100594.00;;;;5050238;28;20222;-83
2023/08/25 07:39:55;;;;;;;21.08;16.02;;;25.60;67.50;27.30;100598.00;;;;5047552;28;20206;-83
2023/08/25 07:42:23;;;;;;;21.90;17.25;;;25.70;67.50;27.30;100596.00;;;;5040141;28;20699;-83
2023/08/25 07:44:50;;;;;;;21.65;16.60;;;25.70;67.30;27.30;100600.00;;;;5035020;28;20199;-83
2023/08/25 07:47:18;;;;;;;25.83;18.15;;;25.70;67.20;27.30;100597.00;;;;5041248;28;20215;-81
2023/08/25 07:49:45;;;;;;;26.73;19.20;;;25.80;67.20;27.40;100593.00;;;;5042850;28;20204;-83
2023/08/25 07:52:12;;;;;;;23.20;17.08;;;25.80;67.00;27.40;100581.00;;;;5047967;28;20192;-83
2023/08/25 07:54:39;;;;;;;20.50;16.73;;;25.80;66.90;27.40;100573.00;;;;5050057;28;20198;-83
2023/08/25 07:57:07;;;;;;;24.00;18.60;;;25.80;66.90;27.40;100577.00;;;;5047025;28;20203;-83
2023/08/25 07:59:34;;;;;;;20.50;15.35;;;25.80;66.70;27.40;100589.00;;;;5049143;28;20195;-83
2023/08/25 08:02:03;;;;;;;21.55;16.27;;;25.80;66.60;27.40;100608.00;;;;5045294;28;20210;-83
2023/08/25 08:04:31;;;;;;;21.50;16.70;;;25.80;66.60;27.40;100608.00;;;;5029878;28;20468;-83
2023/08/25 08:07:00;;;;;;;22.25;17.00;;;25.80;66.60;27.40;100599.00;;;;5033517;28;20724;-81
2023/08/25 08:09:27;;;;;;;23.80;16.65;;;25.80;66.70;27.40;100601.00;;;;5049166;28;20195;-81
2023/08/25 08:11:54;;;;;;;22.40;17.55;;;25.80;66.80;27.50;100623.00;;;;5048214;28;20302;-80
2023/08/25 08:14:22;;;;;;;20.50;16.25;;;25.80;66.90;27.50;100621.00;;;;5048050;28;20242;-82
2023/08/25 08:16:49;;;;;;;22.90;17.25;;;25.90;67.00;27.50;100619.00;;;;5049194;28;20204;-81
2023/08/25 08:19:16;;;;;;;22.15;16.52;;;25.90;66.90;27.50;100626.00;;;;5049594;28;20214;-80
2023/08/25 08:21:43;;;;;;;25.13;17.92;;;25.90;66.80;27.50;100634.00;;;;5048988;28;20286;-81
2023/08/25 08:24:10;;;;;;;20.50;15.77;;;25.90;66.80;27.50;100627.00;;;;5048721;28;20674;-82
2023/08/25 08:26:37;;;;;;;22.95;16.38;;;25.90;66.70;27.50;100627.00;;;;5048722;28;20195;-81
2023/08/25 08:29:04;;;;;;;20.55;15.98;;;26.00;66.70;27.50;100622.00;;;;5048462;28;20578;-82
2023/08/25 08:31:32;;;;;;;20.10;16.05;;;25.90;66.60;27.50;100617.00;;;;5047314;28;20230;-83
2023/08/25 08:33:59;;;;;;;20.67;16.13;;;26.00;66.60;27.60;100605.00;;;;5047324;28;20200;-81
2023/08/25 08:36:26;;;;;;;24.40;16.90;;;26.00;66.60;27.60;100617.00;;;;5048727;28;20207;-81
2023/08/25 08:38:53;;;;;;;20.90;15.85;;;26.00;66.60;27.60;100619.00;;;;5048126;28;20188;-82
2023/08/25 08:41:21;;;;;;;20.15;15.25;;;26.00;66.60;27.60;100636.00;;;;5047661;28;20199;-81
2023/08/25 08:43:53;;;;;;;25.08;16.00;;;26.00;66.60;27.60;100629.00;;;;5048199;28;20202;-82
2023/08/25 08:46:21;;;;;;;22.48;15.55;;;26.00;66.60;27.60;100620.00;;;;5047479;28;20188;-82
2023/08/25 08:48:51;;;;;;;21.13;15.90;;;26.10;66.60;27.60;100613.00;;;;5047721;28;20206;-82
2023/08/25 08:51:20;;;;;;;19.40;14.77;;;26.00;67.00;27.60;100622.00;;;;5047647;28;20225;-82
2023/08/25 08:53:49;;;;;;;23.30;16.48;;;26.00;66.20;27.50;100619.00;;;;5047891;28;20683;-82
2023/08/25 08:56:18;;;;;;;22.30;14.70;;;26.00;66.10;27.50;100625.00;;;;5047952;28;20228;-82
2023/08/25 08:58:45;;;;;;;21.80;15.98;;;26.00;66.00;27.50;100625.00;;;;5047574;28;20665;-82
2023/08/25 09:01:12;;;;;;;22.25;15.13;;;26.00;66.00;27.50;100633.00;;;;5046903;28;20654;-82
2023/08/25 09:03:40;;;;;;;20.65;14.82;;;26.00;66.00;27.50;100628.00;;;;5048492;28;20203;-82
2023/08/25 09:06:08;;;;;;;22.60;15.35;;;25.90;66.00;27.40;100628.00;;;;5045619;28;20196;-82
2023/08/25 09:08:36;;;;;;;21.23;15.45;;;25.90;66.00;27.40;100631.00;;;;5047467;28;20200;-82
2023/08/25 09:11:05;;;;;;;21.20;14.45;;;25.90;66.70;27.40;100636.00;;;;5050986;28;20231;-82
2023/08/25 09:13:34;;;;;;;21.83;14.65;;;25.80;66.00;27.40;100647.00;;;;5038050;28;20294;-82
2023/08/25 09:16:12;;;;;;;20.63;14.07;;;25.80;66.00;27.30;100648.00;;;;5032248;28;20314;-81
2023/08/25 09:18:40;;;;;;;17.00;13.55;;;25.80;66.00;27.30;100644.00;;;;5050425;28;20207;-81
2023/08/25 09:21:18;;;;;;;19.42;13.93;;;25.80;66.00;27.20;100641.00;;;;5051154;28;20191;-81
2023/08/25 09:23:57;;;;;;;16.08;12.98;;;25.80;66.30;27.30;100651.00;;;;5036281;28;20218;-82
2023/08/25 09:26:24;;;;;;;18.38;13.65;;;25.80;66.20;27.30;100645.00;;;;5042547;28;20211;-83
2023/08/25 09:28:58;;;;;;;14.35;12.27;;;25.80;66.00;27.30;100647.00;;;;5052602;28;20209;-80
2023/08/25 09:31:27;;;;;;;14.27;11.43;;;25.80;66.10;27.30;100645.00;;;;5052046;28;20234;-81
2023/08/25 09:34:03;;;;;;;13.35;10.40;;;25.80;66.10;27.30;100646.00;;;;5051760;28;20184;-81
2023/08/25 09:36:33;;;;;;;13.95;10.85;;;25.80;66.20;27.30;100641.00;;;;5051307;28;20703;-82
2023/08/25 09:39:01;;;;;;;11.90;9.93;;;25.80;66.20;27.40;100648.00;;;;5051152;28;20206;-82
2023/08/25 09:41:29;;;;;;;12.57;9.23;;;25.80;66.20;27.40;100643.00;;;;5041035;28;20210;-82
2023/08/25 09:43:58;;;;;;;10.75;8.70;;;25.80;66.20;27.40;100643.00;;;;5051117;28;20690;-82
2023/08/25 09:46:29;;;;;;;8.95;8.10;;;25.80;66.10;27.40;100644.00;;;;5051778;28;20663;-81
2023/08/25 09:49:02;;;;;;;9.75;8.60;;;25.80;66.00;27.40;100646.00;;;;5051391;28;20308;-81
2023/08/25 09:51:36;;;;;;;10.93;9.05;;;25.80;66.00;27.40;100651.00;;;;5050573;28;20760;-81
2023/08/25 09:54:09;;;;;;;10.02;8.13;;;25.80;66.00;27.40;100651.00;;;;5050668;28;20199;-82
2023/08/25 09:56:38;;;;;;;11.02;7.47;;;25.90;65.90;27.40;100647.00;;;;5045994;28;20785;-82
2023/08/25 09:59:06;;;;;;;8.88;6.25;;;25.90;65.80;27.40;100655.00;;;;5045589;28;20204;-82
2023/08/25 10:01:36;;;;;;;9.10;6.95;;;25.90;65.70;27.40;100644.00;;;;5051578;28;20230;-82
2023/08/25 10:04:04;;;;;;;8.13;7.18;;;25.90;65.60;27.40;100639.00;;;;5051353;28;20194;-82
2023/08/25 10:06:35;;;;;;;7.40;6.53;;;25.90;65.50;27.40;100646.00;;;;5050106;28;21264;-81
2023/08/25 10:09:03;;;;;;;7.38;6.38;;;25.90;65.50;27.40;100646.00;;;;5031134;28;20208;-82
2023/08/25 10:11:38;;;;;;;9.77;6.57;;;25.90;65.40;27.30;100633.00;;;;5036520;28;20216;-82
2023/08/25 10:14:10;;;;;;;6.15;5.55;;;25.90;65.30;27.30;100635.00;;;;5048657;28;20804;-82
2023/08/25 10:16:40;;;;;;;7.72;5.95;;;25.80;65.80;27.30;100647.00;;;;5049512;28;20720;-82
2023/08/25 10:19:14;;;;;;;6.97;5.72;;;25.80;65.30;27.30;100636.00;;;;5049787;28;20250;-82
2023/08/25 10:21:45;;;;;;;5.38;4.88;;;25.80;65.50;27.40;100630.00;;;;5049807;28;20195;-81
2023/08/25 10:24:15;;;;;;;4.07;3.60;;;25.80;65.50;27.40;100629.00;;;;5050926;28;21028;-82
2023/08/25 10:26:43;;;;;;;3.90;3.28;;;25.80;65.50;27.40;100631.00;;;;5051266;28;20196;-82
2023/08/25 10:29:12;;;;;;;4.93;3.45;;;25.80;65.50;27.40;100626.00;;;;5049200;28;20192;-82
2023/08/25 10:31:47;;;;;;;3.22;2.92;;;25.90;65.50;27.30;100628.00;;;;5049386;28;20699;-83
2023/08/25 10:34:34;;;;;;;3.28;2.33;;;25.80;65.50;27.30;100621.00;;;;5048394;28;20204;-81
2023/08/25 10:37:07;;;;;;;4.32;3.15;;;25.90;65.60;27.40;100624.00;;;;5049937;28;20210;-81
2023/08/25 10:39:52;;;;;;;3.40;3.10;;;25.90;65.70;27.40;100625.00;;;;5050822;28;20301;-82
2023/08/25 10:42:23;;;;;;;4.10;3.72;;;25.90;65.80;27.50;100626.00;;;;5049684;28;20211;-82